Time,TemperatureF,DewpointF,PressureIn,WindDirection,WindDirectionDegrees,WindSpeedMPH,WindSpeedGustMPH,Humidity,HourlyPrecipIn,Conditions,Clouds,dailyrainin,SoftwareType,DateUTC
2013-09-08 00:00:00,66.4,65.5,30.05,WSW,250,0.0,0.0,97,0.00,,,0.00,Wunderground v.1.15,2013-09-08 04:00:00,
2013-09-08 00:05:00,66.4,65.5,30.05,WSW,250,0.0,0.0,97,0.00,,,0.00,Wunderground v.1.15,2013-09-08 04:05:00,
2013-09-08 00:10:00,66.4,65.5,30.05,WSW,250,0.0,0.0,97,0.00,,,0.00,Wunderground v.1.15,2013-09-08 04:10:00,
2013-09-08 00:15:00,66.3,65.4,30.05,WSW,250,0.0,0.0,97,0.00,,,0.00,Wunderground v.1.15,2013-09-08 04:15:00,
2013-09-08 00:20:00,66.1,65.2,30.05,WSW,250,0.0,0.0,97,0.00,,,0.00,Wunderground v.1.15,2013-09-08 04:20:00,
2013-09-08 00:25:00,66.0,65.1,30.05,WSW,250,0.0,0.0,97,0.00,,,0.00,Wunderground v.1.15,2013-09-08 04:25:00,
2013-09-08 00:30:00,66.0,65.1,30.05,WSW,250,0.0,0.0,97,0.00,,,0.00,Wunderground v.1.15,2013-09-08 04:30:00,
2013-09-08 00:35:00,65.9,65.0,30.05,WSW,250,0.0,0.0,97,0.00,,,0.00,Wunderground v.1.15,2013-09-08 04:35:00,
2013-09-08 00:45:00,65.7,64.8,30.05,WSW,250,0.0,0.0,97,0.00,,,0.00,Wunderground v.1.15,2013-09-08 04:45:00,
2013-09-08 00:50:00,65.6,64.7,30.05,WSW,250,0.0,0.0,97,0.00,,,0.00,Wunderground v.1.15,2013-09-08 04:50:00,
2013-09-08 00:55:00,65.3,64.4,30.05,WSW,250,0.0,0.0,97,0.00,,,0.00,Wunderground v.1.15,2013-09-08 04:55:00,
2013-09-08 01:00:00,65.2,64.6,30.05,WSW,250,0.0,0.0,98,0.00,,,0.00,Wunderground v.1.15,2013-09-08 05:00:00,
2013-09-08 01:05:00,65.2,64.6,30.05,WSW,250,0.0,0.0,98,0.00,,,0.00,Wunderground v.1.15,2013-09-08 05:05:00,
2013-09-08 01:10:00,65.2,64.6,30.05,WSW,250,0.0,0.0,98,0.00,,,0.00,Wunderground v.1.15,2013-09-08 05:10:00,
2013-09-08 01:15:00,65.2,64.6,30.05,WSW,250,0.0,0.0,98,0.00,,,0.00,Wunderground v.1.15,2013-09-08 05:15:00,
2013-09-08 01:25:00,65.0,64.4,30.05,WSW,250,0.0,0.0,98,0.00,,,0.00,Wunderground v.1.15,2013-09-08 05:25:00,
2013-09-08 01:30:00,65.1,64.5,30.05,WSW,250,0.0,0.0,98,0.00,,,0.00,Wunderground v.1.15,2013-09-08 05:30:00,
2013-09-08 01:35:00,64.9,64.3,30.05,WSW,250,0.0,0.0,98,0.00,,,0.00,Wunderground v.1.15,2013-09-08 05:35:00,
2013-09-08 01:40:00,64.7,64.1,30.05,WSW,250,0.0,0.0,98,0.00,,,0.00,Wunderground v.1.15,2013-09-08 05:40:00,
2013-09-08 01:45:00,64.8,64.2,30.05,WSW,250,0.0,0.0,98,0.00,,,0.00,Wunderground v.1.15,2013-09-08 05:45:00,
2013-09-08 01:50:00,64.8,64.2,30.05,WSW,250,0.0,0.0,98,0.00,,,0.00,Wunderground v.1.15,2013-09-08 05:50:00,
2013-09-08 01:55:00,64.7,64.1,30.05,WSW,250,0.0,0.0,98,0.00,,,0.00,Wunderground v.1.15,2013-09-08 05:55:00,
2013-09-08 02:00:00,64.5,63.9,30.05,WSW,250,0.0,0.0,98,0.00,,,0.00,Wunderground v.1.15,2013-09-08 06:00:00,
2013-09-08 02:05:00,64.4,63.8,30.05,WSW,250,0.0,0.0,98,0.00,,,0.00,Wunderground v.1.15,2013-09-08 06:05:00,
2013-09-08 02:10:00,64.3,63.7,30.05,WSW,250,0.0,0.0,98,0.00,,,0.00,Wunderground v.1.15,2013-09-08 06:10:00,
2013-09-08 02:15:00,64.2,63.6,30.04,WSW,250,0.0,0.0,98,0.00,,,0.00,Wunderground v.1.15,2013-09-08 06:15:00,
2013-09-08 02:20:00,64.0,63.4,30.05,WSW,250,0.0,0.0,98,0.00,,,0.00,Wunderground v.1.15,2013-09-08 06:20:00,
2013-09-08 02:25:00,63.7,63.1,30.04,WSW,250,0.0,0.0,98,0.00,,,0.00,Wunderground v.1.15,2013-09-08 06:25:00,
2013-09-08 02:30:00,63.9,63.3,30.04,WSW,250,0.0,0.0,98,0.00,,,0.00,Wunderground v.1.15,2013-09-08 06:30:00,
2013-09-08 02:35:00,64.0,63.4,30.04,WSW,250,0.0,0.0,98,0.00,,,0.00,Wunderground v.1.15,2013-09-08 06:35:00,
2013-09-08 02:40:00,64.1,63.5,30.04,WSW,250,0.0,0.0,98,0.00,,,0.00,Wunderground v.1.15,2013-09-08 06:40:00,
2013-09-08 02:45:00,64.0,63.4,30.04,WSW,250,0.0,0.0,98,0.00,,,0.00,Wunderground v.1.15,2013-09-08 06:45:00,
2013-09-08 02:50:00,63.9,63.3,30.03,WSW,250,0.0,0.0,98,0.00,,,0.00,Wunderground v.1.15,2013-09-08 06:50:00,
2013-09-08 02:55:00,63.7,63.1,30.03,WSW,250,0.0,0.0,98,0.00,,,0.00,Wunderground v.1.15,2013-09-08 06:55:00,
2013-09-08 03:00:00,63.5,62.9,30.03,WSW,250,0.0,0.0,98,0.00,,,0.00,Wunderground v.1.15,2013-09-08 07:00:00,
2013-09-08 03:05:00,63.4,62.8,30.03,WSW,250,0.0,0.0,98,0.00,,,0.00,Wunderground v.1.15,2013-09-08 07:05:00,
2013-09-08 03:10:00,63.3,62.7,30.02,WSW,250,0.0,0.0,98,0.00,,,0.00,Wunderground v.1.15,2013-09-08 07:10:00,
2013-09-08 03:15:00,63.3,62.7,30.02,WSW,250,0.0,0.0,98,0.00,,,0.00,Wunderground v.1.15,2013-09-08 07:15:00,
2013-09-08 03:20:00,63.2,62.6,30.03,WSW,250,0.0,0.0,98,0.00,,,0.00,Wunderground v.1.15,2013-09-08 07:20:00,
2013-09-08 03:25:00,63.2,62.6,30.03,WSW,250,0.0,0.0,98,0.00,,,0.00,Wunderground v.1.15,2013-09-08 07:25:00,
2013-09-08 03:30:00,63.0,62.4,30.03,WSW,250,0.0,0.0,98,0.00,,,0.00,Wunderground v.1.15,2013-09-08 07:30:00,
2013-09-08 03:35:00,62.8,62.2,30.03,WSW,250,0.0,0.0,98,0.00,,,0.00,Wunderground v.1.15,2013-09-08 07:35:00,
2013-09-08 03:40:00,63.0,62.4,30.03,WSW,250,0.0,0.0,98,0.00,,,0.00,Wunderground v.1.15,2013-09-08 07:40:00,
2013-09-08 03:45:00,63.0,62.4,30.03,WSW,250,0.0,0.0,98,0.00,,,0.00,Wunderground v.1.15,2013-09-08 07:45:00,
2013-09-08 03:50:00,63.1,62.5,30.03,WSW,250,0.0,0.0,98,0.00,,,0.00,Wunderground v.1.15,2013-09-08 07:50:00,
2013-09-08 03:55:00,63.1,62.5,30.03,WSW,250,0.0,0.0,98,0.00,,,0.00,Wunderground v.1.15,2013-09-08 07:55:00,
2013-09-08 04:00:00,62.9,62.3,30.03,WSW,250,0.0,0.0,98,0.00,,,0.00,Wunderground v.1.15,2013-09-08 08:00:00,
2013-09-08 04:05:00,62.6,62.0,30.03,WSW,250,0.0,0.0,98,0.00,,,0.00,Wunderground v.1.15,2013-09-08 08:05:00,
2013-09-08 04:10:00,62.6,62.0,30.03,WSW,250,0.0,0.0,98,0.00,,,0.00,Wunderground v.1.15,2013-09-08 08:10:00,
2013-09-08 04:15:00,62.5,61.9,30.03,WSW,250,0.0,0.0,98,0.00,,,0.00,Wunderground v.1.15,2013-09-08 08:15:00,
2013-09-08 04:20:00,62.4,61.8,30.02,WSW,250,0.0,0.0,98,0.00,,,0.00,Wunderground v.1.15,2013-09-08 08:20:00,
2013-09-08 04:25:00,62.3,61.7,30.02,WSW,250,0.0,0.0,98,0.00,,,0.00,Wunderground v.1.15,2013-09-08 08:25:00,
2013-09-08 04:30:00,62.3,61.7,30.02,WSW,250,0.0,0.0,98,0.00,,,0.00,Wunderground v.1.15,2013-09-08 08:30:00,
2013-09-08 04:35:00,62.2,61.6,30.02,WSW,250,0.0,0.0,98,0.00,,,0.00,Wunderground v.1.15,2013-09-08 08:35:00,
2013-09-08 04:40:00,62.3,61.7,30.02,WSW,250,0.0,0.0,98,0.00,,,0.00,Wunderground v.1.15,2013-09-08 08:40:00,
2013-09-08 04:45:00,62.2,61.6,30.02,WSW,250,0.0,0.0,98,0.00,,,0.00,Wunderground v.1.15,2013-09-08 08:45:00,
2013-09-08 04:50:00,62.2,61.6,30.03,WSW,250,0.0,0.0,98,0.00,,,0.00,Wunderground v.1.15,2013-09-08 08:50:00,
2013-09-08 04:55:00,62.1,61.5,30.03,WSW,250,0.0,0.0,98,0.00,,,0.00,Wunderground v.1.15,2013-09-08 08:55:00,
2013-09-08 05:00:00,61.9,61.3,30.02,WSW,250,0.0,0.0,98,0.00,,,0.00,Wunderground v.1.15,2013-09-08 09:00:00,
2013-09-08 05:05:00,61.8,61.2,30.02,WSW,250,0.0,0.0,98,0.00,,,0.00,Wunderground v.1.15,2013-09-08 09:05:00,
2013-09-08 05:10:00,61.9,61.3,30.02,WSW,250,0.0,0.0,98,0.00,,,0.00,Wunderground v.1.15,2013-09-08 09:10:00,
2013-09-08 05:15:00,62.0,61.4,30.02,WSW,250,0.0,0.0,98,0.00,,,0.00,Wunderground v.1.15,2013-09-08 09:15:00,
2013-09-08 05:20:00,61.8,61.2,30.02,WSW,250,0.0,0.0,98,0.00,,,0.00,Wunderground v.1.15,2013-09-08 09:20:00,
2013-09-08 05:25:00,61.8,61.2,30.02,WSW,250,0.0,0.0,98,0.00,,,0.00,Wunderground v.1.15,2013-09-08 09:25:00,
2013-09-08 05:30:00,61.7,61.1,30.02,WSW,250,0.0,0.0,98,0.00,,,0.00,Wunderground v.1.15,2013-09-08 09:30:00,
2013-09-08 05:40:00,61.7,61.1,30.02,WSW,250,0.0,0.0,98,0.00,,,0.00,Wunderground v.1.15,2013-09-08 09:40:00,
2013-09-08 05:45:00,61.7,61.4,30.02,WSW,250,0.0,0.0,99,0.00,,,0.00,Wunderground v.1.15,2013-09-08 09:45:00,
2013-09-08 05:50:00,61.7,61.4,30.02,WSW,250,0.0,0.0,99,0.00,,,0.00,Wunderground v.1.15,2013-09-08 09:50:00,
2013-09-08 05:55:00,61.7,61.4,30.02,WSW,250,0.0,0.0,99,0.00,,,0.00,Wunderground v.1.15,2013-09-08 09:55:00,
2013-09-08 06:00:00,61.7,61.4,30.02,WSW,250,0.0,0.0,99,0.00,,,0.00,Wunderground v.1.15,2013-09-08 10:00:00,
2013-09-08 06:05:00,61.5,61.2,30.02,WSW,250,0.0,0.0,99,0.00,,,0.00,Wunderground v.1.15,2013-09-08 10:05:00,
2013-09-08 06:10:00,61.5,61.2,30.02,WSW,250,0.0,0.0,99,0.00,,,0.00,Wunderground v.1.15,2013-09-08 10:10:00,
2013-09-08 06:15:00,61.4,60.8,30.02,WSW,250,0.0,0.0,98,0.00,,,0.00,Wunderground v.1.15,2013-09-08 10:15:00,
2013-09-08 06:20:00,61.3,60.7,30.03,WSW,250,0.0,0.0,98,0.00,,,0.00,Wunderground v.1.15,2013-09-08 10:20:00,
2013-09-08 06:25:00,61.4,60.8,30.03,WSW,250,0.0,0.0,98,0.00,,,0.00,Wunderground v.1.15,2013-09-08 10:25:00,
2013-09-08 06:30:00,61.3,60.7,30.03,WSW,250,0.0,0.0,98,0.00,,,0.00,Wunderground v.1.15,2013-09-08 10:30:00,
2013-09-08 06:35:00,61.3,61.0,30.03,WSW,250,0.0,0.0,99,0.00,,,0.00,Wunderground v.1.15,2013-09-08 10:35:00,
2013-09-08 06:40:00,61.4,61.1,30.03,WSW,250,0.0,0.0,99,0.00,,,0.00,Wunderground v.1.15,2013-09-08 10:40:00,
2013-09-08 06:50:00,61.1,60.8,30.03,WSW,250,0.0,0.0,99,0.00,,,0.00,Wunderground v.1.15,2013-09-08 10:50:00,
2013-09-08 06:55:00,61.0,60.4,30.03,WSW,250,0.0,0.0,98,0.00,,,0.00,Wunderground v.1.15,2013-09-08 10:55:00,
2013-09-08 07:00:00,61.0,60.4,30.04,WSW,250,0.0,0.0,98,0.00,,,0.00,Wunderground v.1.15,2013-09-08 11:00:00,
2013-09-08 07:05:00,60.9,60.3,30.04,WSW,250,0.0,0.0,98,0.00,,,0.00,Wunderground v.1.15,2013-09-08 11:05:00,
2013-09-08 07:10:00,60.7,60.1,30.04,WSW,250,0.0,0.0,98,0.00,,,0.00,Wunderground v.1.15,2013-09-08 11:10:00,
2013-09-08 07:20:00,60.8,60.5,30.04,WSW,250,0.0,0.0,99,0.00,,,0.00,Wunderground v.1.15,2013-09-08 11:20:00,
2013-09-08 07:25:00,60.8,60.5,30.05,WSW,250,0.0,0.0,99,0.00,,,0.00,Wunderground v.1.15,2013-09-08 11:25:00,
2013-09-08 07:30:00,61.3,61.0,30.05,WSW,250,0.0,0.0,99,0.00,,,0.00,Wunderground v.1.15,2013-09-08 11:30:00,
2013-09-08 07:35:00,61.6,61.3,30.05,WSW,250,0.0,0.0,99,0.00,,,0.00,Wunderground v.1.15,2013-09-08 11:35:00,
2013-09-08 07:40:00,61.7,61.4,30.05,WSW,250,0.0,0.0,99,0.00,,,0.00,Wunderground v.1.15,2013-09-08 11:40:00,
2013-09-08 07:45:00,61.8,61.5,30.05,WSW,250,0.0,0.0,99,0.00,,,0.00,Wunderground v.1.15,2013-09-08 11:45:00,
2013-09-08 07:50:00,62.0,61.7,30.05,WNW,286,0.0,0.0,99,0.00,,,0.00,Wunderground v.1.15,2013-09-08 11:50:00,
2013-09-08 07:55:00,62.5,62.2,30.05,WNW,284,0.0,0.0,99,0.00,,,0.00,Wunderground v.1.15,2013-09-08 11:55:00,
2013-09-08 08:00:00,62.5,62.2,30.05,SW,221,0.0,0.0,99,0.00,,,0.00,Wunderground v.1.15,2013-09-08 12:00:00,
2013-09-08 08:05:00,62.8,62.5,30.05,SW,221,0.0,0.0,99,0.00,,,0.00,Wunderground v.1.15,2013-09-08 12:05:00,
2013-09-08 08:10:00,63.0,62.7,30.05,SW,221,0.0,0.0,99,0.00,,,0.00,Wunderground v.1.15,2013-09-08 12:10:00,
2013-09-08 08:15:00,63.5,63.2,30.05,SW,221,0.0,0.0,99,0.00,,,0.00,Wunderground v.1.15,2013-09-08 12:15:00,
2013-09-08 08:20:00,63.9,63.6,30.05,SW,221,0.0,0.0,99,0.00,,,0.00,Wunderground v.1.15,2013-09-08 12:20:00,
2013-09-08 08:25:00,64.4,64.1,30.05,SW,221,0.0,0.0,99,0.00,,,0.00,Wunderground v.1.15,2013-09-08 12:25:00,
2013-09-08 08:30:00,64.7,64.1,30.05,SW,221,0.0,0.0,98,0.00,,,0.00,Wunderground v.1.15,2013-09-08 12:30:00,
2013-09-08 08:35:00,65.1,64.5,30.05,SW,221,0.0,0.0,98,0.00,,,0.00,Wunderground v.1.15,2013-09-08 12:35:00,
2013-09-08 08:40:00,65.6,65.0,30.05,SW,221,0.0,0.0,98,0.00,,,0.00,Wunderground v.1.15,2013-09-08 12:40:00,
2013-09-08 08:45:00,66.2,65.6,30.05,SW,221,0.0,0.0,98,0.00,,,0.00,Wunderground v.1.15,2013-09-08 12:45:00,
2013-09-08 08:50:00,66.8,66.2,30.05,SW,221,0.0,0.0,98,0.00,,,0.00,Wunderground v.1.15,2013-09-08 12:50:00,
2013-09-08 08:55:00,67.4,66.8,30.05,ESE,114,0.0,0.0,98,0.00,,,0.00,Wunderground v.1.15,2013-09-08 12:55:00,
2013-09-08 09:00:00,67.9,67.3,30.05,NNW,333,0.0,0.0,98,0.00,,,0.00,Wunderground v.1.15,2013-09-08 13:00:00,
2013-09-08 09:05:00,68.2,67.6,30.05,NNE,17,0.0,0.0,98,0.00,,,0.00,Wunderground v.1.15,2013-09-08 13:05:00,
2013-09-08 09:10:00,68.7,68.1,30.05,North,11,0.0,2.0,98,0.00,,,0.00,Wunderground v.1.15,2013-09-08 13:10:00,
2013-09-08 09:15:00,69.3,68.7,30.05,NNE,15,0.0,2.0,98,0.00,,,0.00,Wunderground v.1.15,2013-09-08 13:15:00,
2013-09-08 09:20:00,69.7,69.1,30.05,NNW,336,1.0,1.0,98,0.00,,,0.00,Wunderground v.1.15,2013-09-08 13:20:00,
2013-09-08 09:25:00,71.0,68.2,30.05,East,92,1.0,1.0,91,0.00,,,0.00,Wunderground v.1.15,2013-09-08 13:25:00,
2013-09-08 09:30:00,72.4,69.0,30.05,WNW,286,2.0,2.0,89,0.00,,,0.00,Wunderground v.1.15,2013-09-08 13:30:00,
2013-09-08 09:35:00,73.0,68.6,30.05,East,97,1.0,2.0,86,0.00,,,0.00,Wunderground v.1.15,2013-09-08 13:35:00,
2013-09-08 09:40:00,73.6,68.8,30.05,NW,310,1.0,1.0,85,0.00,,,0.00,Wunderground v.1.15,2013-09-08 13:40:00,
2013-09-08 09:45:00,74.3,68.8,30.05,ENE,61,2.0,3.0,83,0.00,,,0.00,Wunderground v.1.15,2013-09-08 13:45:00,
2013-09-08 09:50:00,74.9,69.0,30.05,NE,44,2.0,3.0,82,0.00,,,0.00,Wunderground v.1.15,2013-09-08 13:50:00,
2013-09-08 09:55:00,75.5,69.3,30.05,NNW,346,1.0,3.0,81,0.00,,,0.00,Wunderground v.1.15,2013-09-08 13:55:00,
2013-09-08 10:00:00,76.0,69.4,30.05,North,11,1.0,1.0,80,0.00,,,0.00,Wunderground v.1.15,2013-09-08 14:00:00,
2013-09-08 10:05:00,76.6,70.3,30.05,NNW,346,2.0,3.0,81,0.00,,,0.00,Wunderground v.1.15,2013-09-08 14:05:00,
2013-09-08 10:10:00,77.3,69.9,30.05,North,4,2.0,4.0,78,0.00,,,0.00,Wunderground v.1.15,2013-09-08 14:10:00,
2013-09-08 10:15:00,77.8,70.4,30.05,NNE,13,2.0,4.0,78,0.00,,,0.00,Wunderground v.1.15,2013-09-08 14:15:00,
2013-09-08 10:20:00,78.2,70.0,30.05,ENE,73,3.0,3.0,76,0.00,,,0.00,Wunderground v.1.15,2013-09-08 14:20:00,
2013-09-08 10:25:00,78.6,70.0,30.05,NNE,20,3.0,3.0,75,0.00,,,0.00,Wunderground v.1.15,2013-09-08 14:25:00,
2013-09-08 10:30:00,79.0,70.0,30.04,NNE,27,2.0,2.0,74,0.00,,,0.00,Wunderground v.1.15,2013-09-08 14:30:00,
2013-09-08 10:35:00,79.4,70.4,30.04,North,11,2.0,3.0,74,0.00,,,0.00,Wunderground v.1.15,2013-09-08 14:35:00,
2013-09-08 10:40:00,79.7,70.3,30.04,WNW,291,2.0,2.0,73,0.00,,,0.00,Wunderground v.1.15,2013-09-08 14:40:00,
2013-09-08 10:45:00,80.1,69.8,30.04,NNE,23,2.0,2.0,71,0.00,,,0.00,Wunderground v.1.15,2013-09-08 14:45:00,
2013-09-08 10:55:00,80.7,67.4,30.04,NNE,12,3.0,3.0,64,0.00,,,0.00,Wunderground v.1.15,2013-09-08 14:55:00,
2013-09-08 11:00:00,81.0,68.1,30.04,NE,36,2.0,3.0,65,0.00,,,0.00,Wunderground v.1.15,2013-09-08 15:00:00,
2013-09-08 11:05:00,81.3,68.9,30.04,NE,56,1.0,3.0,66,0.00,,,0.00,Wunderground v.1.15,2013-09-08 15:05:00,
2013-09-08 11:10:00,81.7,69.2,30.04,South,170,1.0,1.0,66,0.00,,,0.00,Wunderground v.1.15,2013-09-08 15:10:00,
2013-09-08 11:15:00,82.3,70.7,30.04,West,278,1.0,1.0,68,0.00,,,0.00,Wunderground v.1.15,2013-09-08 15:15:00,
2013-09-08 11:20:00,82.7,69.3,30.04,SW,222,1.0,2.0,64,0.00,,,0.00,Wunderground v.1.15,2013-09-08 15:20:00,
2013-09-08 11:25:00,83.0,70.0,30.04,West,259,1.0,2.0,65,0.00,,,0.00,Wunderground v.1.15,2013-09-08 15:25:00,
2013-09-08 11:30:00,83.2,68.8,30.03,East,81,1.0,1.0,62,0.00,,,0.00,Wunderground v.1.15,2013-09-08 15:30:00,
2013-09-08 11:35:00,83.6,70.1,30.03,WNW,294,1.0,1.0,64,0.00,,,0.00,Wunderground v.1.15,2013-09-08 15:35:00,
2013-09-08 11:40:00,83.8,70.3,30.03,North,351,1.0,2.0,64,0.00,,,0.00,Wunderground v.1.15,2013-09-08 15:40:00,
2013-09-08 11:45:00,84.3,69.4,30.03,North,6,1.0,2.0,61,0.00,,,0.00,Wunderground v.1.15,2013-09-08 15:45:00,
2013-09-08 11:50:00,83.8,69.9,30.03,NE,50,2.0,3.0,63,0.00,,,0.00,Wunderground v.1.15,2013-09-08 15:50:00,
2013-09-08 11:55:00,83.6,71.0,30.03,SSE,148,3.0,3.0,66,0.00,,,0.00,Wunderground v.1.15,2013-09-08 15:55:00,
2013-09-08 12:00:00,84.3,71.2,30.03,SW,221,2.0,2.0,65,0.00,,,0.00,Wunderground v.1.15,2013-09-08 16:00:00,
2013-09-08 12:05:00,84.5,69.6,30.03,NNW,346,1.0,2.0,61,0.00,,,0.00,Wunderground v.1.15,2013-09-08 16:05:00,
2013-09-08 12:10:00,84.2,69.8,30.03,West,265,2.0,2.0,62,0.00,,,0.00,Wunderground v.1.15,2013-09-08 16:10:00,
2013-09-08 12:15:00,84.5,71.4,30.03,East,84,1.0,3.0,65,0.00,,,0.00,Wunderground v.1.15,2013-09-08 16:15:00,
2013-09-08 12:20:00,84.6,71.1,30.03,WNW,290,1.0,4.0,64,0.00,,,0.00,Wunderground v.1.15,2013-09-08 16:20:00,
2013-09-08 12:25:00,84.3,70.3,30.03,NW,304,1.0,4.0,63,0.00,,,0.00,Wunderground v.1.15,2013-09-08 16:25:00,
2013-09-08 12:30:00,85.0,70.0,30.03,ENE,67,1.0,1.0,61,0.00,,,0.00,Wunderground v.1.15,2013-09-08 16:30:00,
2013-09-08 12:35:00,85.3,68.3,30.03,East,85,1.0,1.0,57,0.00,,,0.00,Wunderground v.1.15,2013-09-08 16:35:00,
2013-09-08 12:40:00,85.9,69.4,30.03,NE,41,2.0,2.0,58,0.00,,,0.00,Wunderground v.1.15,2013-09-08 16:40:00,
2013-09-08 12:45:00,85.6,68.1,30.03,NE,48,2.0,3.0,56,0.00,,,0.00,Wunderground v.1.15,2013-09-08 16:45:00,
2013-09-08 12:55:00,84.7,69.8,30.03,NW,322,1.0,2.0,61,0.00,,,0.00,Wunderground v.1.15,2013-09-08 16:55:00,
2013-09-08 13:00:00,84.9,70.4,30.03,North,351,1.0,1.0,62,0.00,,,0.00,Wunderground v.1.15,2013-09-08 17:00:00,
2013-09-08 13:10:00,85.3,69.3,30.03,North,352,1.0,1.0,59,0.00,,,0.00,Wunderground v.1.15,2013-09-08 17:10:00,
2013-09-08 13:45:00,85.1,70.1,30.02,NE,41,1.0,1.0,61,0.00,,,0.00,Wunderground v.1.15,2013-09-08 17:45:00,
2013-09-08 13:50:00,85.7,70.2,30.02,NE,39,1.0,2.0,60,0.00,,,0.00,Wunderground v.1.15,2013-09-08 17:50:00,
2013-09-08 13:55:00,86.1,69.6,30.02,WNW,296,1.0,1.0,58,0.00,,,0.00,Wunderground v.1.15,2013-09-08 17:55:00,
2013-09-08 14:00:00,86.3,69.3,30.01,North,354,2.0,2.0,57,0.00,,,0.00,Wunderground v.1.15,2013-09-08 18:00:00,
2013-09-08 14:05:00,85.8,69.8,30.01,NE,39,2.0,2.0,59,0.00,,,0.00,Wunderground v.1.15,2013-09-08 18:05:00,
2013-09-08 14:10:00,85.6,70.1,30.01,NNW,346,2.0,2.0,60,0.00,,,0.00,Wunderground v.1.15,2013-09-08 18:10:00,
2013-09-08 14:15:00,85.3,70.3,30.01,ESE,114,2.0,2.0,61,0.00,,,0.00,Wunderground v.1.15,2013-09-08 18:15:00,
2013-09-08 14:20:00,85.4,70.9,30.01,East,79,1.0,1.0,62,0.00,,,0.00,Wunderground v.1.15,2013-09-08 18:20:00,
2013-09-08 14:25:00,85.4,71.4,30.01,SSE,150,0.0,1.0,63,0.00,,,0.00,Wunderground v.1.15,2013-09-08 18:25:00,
2013-09-08 14:30:00,85.7,69.2,30.01,ENE,73,1.0,1.0,58,0.00,,,0.00,Wunderground v.1.15,2013-09-08 18:30:00,
2013-09-08 14:35:00,85.6,70.6,30.00,East,82,1.0,1.0,61,0.00,,,0.00,Wunderground v.1.15,2013-09-08 18:35:00,
2013-09-08 14:40:00,85.9,68.9,30.00,ESE,123,1.0,1.0,57,0.00,,,0.00,Wunderground v.1.15,2013-09-08 18:40:00,
2013-09-08 14:45:00,85.4,67.9,30.00,NNE,27,1.0,1.0,56,0.00,,,0.00,Wunderground v.1.15,2013-09-08 18:45:00,
2013-09-08 14:50:00,85.4,67.4,30.00,East,85,2.0,2.0,55,0.00,,,0.00,Wunderground v.1.15,2013-09-08 18:50:00,
2013-09-08 14:55:00,85.8,69.3,30.00,East,94,1.0,2.0,58,0.00,,,0.00,Wunderground v.1.15,2013-09-08 18:55:00,
2013-09-08 15:00:00,86.9,68.8,30.00,SW,218,1.0,2.0,55,0.00,,,0.00,Wunderground v.1.15,2013-09-08 19:00:00,
2013-09-08 15:05:00,87.4,68.2,30.00,SSE,165,1.0,2.0,53,0.00,,,0.00,Wunderground v.1.15,2013-09-08 19:05:00,
2013-09-08 15:10:00,86.5,67.3,30.00,WSW,248,2.0,2.0,53,0.00,,,0.00,Wunderground v.1.15,2013-09-08 19:10:00,
2013-09-08 15:15:00,85.8,70.8,30.00,SW,235,1.0,2.0,61,0.00,,,0.00,Wunderground v.1.15,2013-09-08 19:15:00,
2013-09-08 15:20:00,85.4,71.4,30.00,West,278,1.0,1.0,63,0.00,,,0.00,Wunderground v.1.15,2013-09-08 19:20:00,
2013-09-08 15:25:00,85.0,69.1,30.00,WNW,297,0.0,1.0,59,0.00,,,0.00,Wunderground v.1.15,2013-09-08 19:25:00,
2013-09-08 15:30:00,84.3,70.3,30.00,WNW,302,0.0,0.0,63,0.00,,,0.00,Wunderground v.1.15,2013-09-08 19:30:00,
2013-09-08 15:35:00,83.7,71.6,30.00,WNW,302,0.0,0.0,67,0.00,,,0.00,Wunderground v.1.15,2013-09-08 19:35:00,
2013-09-08 15:40:00,82.9,69.9,30.00,North,11,0.0,7.0,65,0.00,,,0.00,Wunderground v.1.15,2013-09-08 19:40:00,
2013-09-08 15:45:00,80.9,70.6,30.00,NNE,23,2.0,7.0,71,0.00,,,0.00,Wunderground v.1.15,2013-09-08 19:45:00,
2013-09-08 15:50:00,77.7,70.3,30.01,East,86,5.0,6.0,78,0.25,,,0.03,Wunderground v.1.15,2013-09-08 19:50:00,
2013-09-08 15:55:00,75.4,69.9,30.01,East,87,6.0,6.0,83,0.49,,,0.08,Wunderground v.1.15,2013-09-08 19:55:00,
2013-09-08 16:00:00,74.1,69.0,30.01,NNE,18,4.0,4.0,84,0.18,,,0.09,Wunderground v.1.15,2013-09-08 20:00:00,
2013-09-08 16:05:00,73.5,69.1,30.01,ENE,63,2.0,4.0,86,0.09,,,0.10,Wunderground v.1.15,2013-09-08 20:05:00,
2013-09-08 16:10:00,73.4,70.3,30.01,ENE,65,1.0,1.0,90,0.09,,,0.10,Wunderground v.1.15,2013-09-08 20:10:00,
2013-09-08 16:15:00,73.3,70.5,30.00,SW,218,1.0,1.0,91,0.22,,,0.12,Wunderground v.1.15,2013-09-08 20:15:00,
2013-09-08 16:20:00,73.0,70.5,30.00,SW,229,1.0,2.0,92,0.14,,,0.13,Wunderground v.1.15,2013-09-08 20:20:00,
2013-09-08 16:25:00,73.0,71.2,30.00,SW,225,1.0,2.0,94,0.06,,,0.13,Wunderground v.1.15,2013-09-08 20:25:00,
2013-09-08 16:30:00,73.3,71.5,30.00,SW,232,1.0,1.0,94,0.04,,,0.13,Wunderground v.1.15,2013-09-08 20:30:00,
2013-09-08 16:35:00,74.4,72.2,30.00,SW,229,1.0,1.0,93,0.00,,,0.13,Wunderground v.1.15,2013-09-08 20:35:00,
2013-09-08 16:40:00,75.3,72.2,30.00,East,83,1.0,1.0,90,0.00,,,0.13,Wunderground v.1.15,2013-09-08 20:40:00,
2013-09-08 16:45:00,76.4,73.6,30.00,WSW,238,0.0,1.0,91,0.00,,,0.13,Wunderground v.1.15,2013-09-08 20:45:00,
2013-09-08 16:50:00,77.3,73.8,30.00,WSW,238,0.0,0.0,89,0.00,,,0.13,Wunderground v.1.15,2013-09-08 20:50:00,
2013-09-08 16:55:00,78.4,74.5,30.00,WSW,238,0.0,0.0,88,0.00,,,0.13,Wunderground v.1.15,2013-09-08 20:55:00,
2013-09-08 17:00:00,79.0,74.5,30.00,WSW,238,0.0,0.0,86,0.00,,,0.13,Wunderground v.1.15,2013-09-08 21:00:00,
2013-09-08 17:05:00,78.7,73.5,29.99,SE,126,0.0,0.0,84,0.00,,,0.13,Wunderground v.1.15,2013-09-08 21:05:00,
2013-09-08 17:10:00,78.6,74.1,29.99,SE,125,0.0,0.0,86,0.00,,,0.13,Wunderground v.1.15,2013-09-08 21:10:00,
2013-09-08 17:20:00,80.3,73.6,29.99,SSW,201,0.0,0.0,80,0.00,,,0.13,Wunderground v.1.15,2013-09-08 21:20:00,
2013-09-08 17:25:00,81.1,74.7,29.99,SE,145,0.0,0.0,81,0.00,,,0.13,Wunderground v.1.15,2013-09-08 21:25:00,
2013-09-08 17:30:00,81.7,74.5,29.99,SE,145,0.0,0.0,79,0.00,,,0.13,Wunderground v.1.15,2013-09-08 21:30:00,
2013-09-08 17:35:00,82.1,74.2,29.99,South,188,0.0,0.0,77,0.00,,,0.13,Wunderground v.1.15,2013-09-08 21:35:00,
2013-09-08 17:40:00,82.0,73.7,29.99,South,188,0.0,0.0,76,0.00,,,0.13,Wunderground v.1.15,2013-09-08 21:40:00,
2013-09-08 17:45:00,82.1,73.8,29.99,SW,228,0.0,0.0,76,0.00,,,0.13,Wunderground v.1.15,2013-09-08 21:45:00,
2013-09-08 17:50:00,82.3,72.4,29.99,WSW,256,0.0,0.0,72,0.00,,,0.13,Wunderground v.1.15,2013-09-08 21:50:00,
2013-09-08 17:55:00,83.0,73.0,29.99,WSW,255,0.0,0.0,72,0.00,,,0.13,Wunderground v.1.15,2013-09-08 21:55:00,
2013-09-08 18:00:00,84.1,74.9,29.99,WSW,256,0.0,0.0,74,0.00,,,0.13,Wunderground v.1.15,2013-09-08 22:00:00,
2013-09-08 18:05:00,84.0,74.8,29.99,WSW,256,0.0,0.0,74,0.00,,,0.13,Wunderground v.1.15,2013-09-08 22:05:00,
2013-09-08 18:10:00,83.6,75.2,29.99,WSW,256,0.0,0.0,76,0.00,,,0.13,Wunderground v.1.15,2013-09-08 22:10:00,
2013-09-08 18:15:00,84.0,76.0,29.99,WSW,256,0.0,0.0,77,0.00,,,0.13,Wunderground v.1.15,2013-09-08 22:15:00,
2013-09-08 18:20:00,84.9,75.7,29.99,WSW,256,0.0,0.0,74,0.00,,,0.13,Wunderground v.1.15,2013-09-08 22:20:00,
2013-09-08 18:25:00,84.3,75.1,29.99,WSW,256,0.0,0.0,74,0.00,,,0.13,Wunderground v.1.15,2013-09-08 22:25:00,
2013-09-08 18:30:00,84.3,75.5,29.99,WSW,255,0.0,0.0,75,0.00,,,0.13,Wunderground v.1.15,2013-09-08 22:30:00,
2013-09-08 18:35:00,84.5,74.9,29.99,WSW,255,0.0,0.0,73,0.00,,,0.13,Wunderground v.1.15,2013-09-08 22:35:00,
2013-09-08 18:40:00,84.2,75.0,29.99,WSW,256,0.0,0.0,74,0.00,,,0.13,Wunderground v.1.15,2013-09-08 22:40:00,
2013-09-08 18:45:00,83.6,75.2,29.99,WSW,256,0.0,0.0,76,0.00,,,0.13,Wunderground v.1.15,2013-09-08 22:45:00,
2013-09-08 18:50:00,82.7,75.1,29.99,WSW,255,0.0,0.0,78,0.00,,,0.13,Wunderground v.1.15,2013-09-08 22:50:00,
2013-09-08 18:55:00,82.6,74.7,29.99,WSW,256,0.0,0.0,77,0.00,,,0.13,Wunderground v.1.15,2013-09-08 22:55:00,
2013-09-08 19:00:00,82.1,74.6,29.99,WSW,255,0.0,0.0,78,0.00,,,0.13,Wunderground v.1.15,2013-09-08 23:00:00,
2013-09-08 19:05:00,82.3,74.7,29.99,WSW,255,0.0,0.0,78,0.00,,,0.13,Wunderground v.1.15,2013-09-08 23:05:00,
2013-09-08 19:15:00,81.8,74.6,29.99,WSW,256,0.0,0.0,79,0.00,,,0.13,Wunderground v.1.15,2013-09-08 23:15:00,
2013-09-08 19:20:00,80.9,74.9,29.99,WSW,256,0.0,0.0,82,0.00,,,0.13,Wunderground v.1.15,2013-09-08 23:20:00,
2013-09-08 19:25:00,79.5,73.9,29.99,WSW,256,0.0,0.0,83,0.00,,,0.13,Wunderground v.1.15,2013-09-08 23:25:00,
2013-09-08 19:30:00,78.6,73.7,29.99,WSW,255,0.0,0.0,85,0.00,,,0.13,Wunderground v.1.15,2013-09-08 23:30:00,
2013-09-08 19:35:00,78.0,73.5,29.99,WSW,255,0.0,0.0,86,0.00,,,0.13,Wunderground v.1.15,2013-09-08 23:35:00,
2013-09-08 19:45:00,76.7,73.5,29.99,WSW,255,0.0,0.0,90,0.00,,,0.13,Wunderground v.1.15,2013-09-08 23:45:00,
2013-09-08 19:50:00,76.0,73.2,29.99,WSW,255,0.0,0.0,91,0.00,,,0.13,Wunderground v.1.15,2013-09-08 23:50:00,
2013-09-08 19:55:00,75.5,73.0,29.99,WSW,256,0.0,0.0,92,0.00,,,0.13,Wunderground v.1.15,2013-09-08 23:55:00,
2013-09-08 20:00:00,75.0,72.5,29.99,WSW,256,0.0,0.0,92,0.00,,,0.13,Wunderground v.1.15,2013-09-09 00:00:00,
2013-09-08 20:05:00,74.6,72.4,30.00,WSW,256,0.0,0.0,93,0.00,,,0.13,Wunderground v.1.15,2013-09-09 00:05:00,
2013-09-08 20:10:00,74.2,72.0,30.00,WSW,256,0.0,0.0,93,0.00,,,0.13,Wunderground v.1.15,2013-09-09 00:10:00,
2013-09-08 20:15:00,73.9,72.1,30.00,WSW,256,0.0,0.0,94,0.00,,,0.13,Wunderground v.1.15,2013-09-09 00:15:00,
2013-09-08 20:20:00,73.6,71.8,30.00,WSW,256,0.0,0.0,94,0.00,,,0.13,Wunderground v.1.15,2013-09-09 00:20:00,
2013-09-08 20:25:00,73.4,71.6,30.01,WSW,256,0.0,0.0,94,0.00,,,0.13,Wunderground v.1.15,2013-09-09 00:25:00,
2013-09-08 20:30:00,73.2,71.7,30.01,WSW,255,0.0,0.0,95,0.00,,,0.13,Wunderground v.1.15,2013-09-09 00:30:00,
2013-09-08 20:35:00,73.0,71.5,30.01,WSW,255,0.0,0.0,95,0.00,,,0.13,Wunderground v.1.15,2013-09-09 00:35:00,
2013-09-08 20:40:00,72.8,71.3,30.01,WSW,255,0.0,0.0,95,0.00,,,0.13,Wunderground v.1.15,2013-09-09 00:40:00,
2013-09-08 20:50:00,72.6,71.1,30.01,WSW,256,0.0,0.0,95,0.00,,,0.13,Wunderground v.1.15,2013-09-09 00:50:00,
2013-09-08 20:55:00,72.4,70.9,30.01,WSW,256,0.0,0.0,95,0.00,,,0.13,Wunderground v.1.15,2013-09-09 00:55:00,
2013-09-08 21:00:00,72.2,71.0,30.01,WSW,255,0.0,0.0,96,0.00,,,0.13,Wunderground v.1.15,2013-09-09 01:00:00,
2013-09-08 21:05:00,72.0,70.8,30.02,WSW,256,0.0,0.0,96,0.00,,,0.13,Wunderground v.1.15,2013-09-09 01:05:00,
2013-09-08 21:10:00,71.8,70.6,30.01,WSW,256,0.0,0.0,96,0.00,,,0.13,Wunderground v.1.15,2013-09-09 01:10:00,
2013-09-08 21:15:00,71.7,70.5,30.02,WSW,256,0.0,0.0,96,0.00,,,0.13,Wunderground v.1.15,2013-09-09 01:15:00,
2013-09-08 21:20:00,71.6,70.4,30.02,WSW,256,0.0,0.0,96,0.00,,,0.13,Wunderground v.1.15,2013-09-09 01:20:00,
2013-09-08 21:25:00,71.5,70.3,30.02,WSW,256,0.0,0.0,96,0.00,,,0.13,Wunderground v.1.15,2013-09-09 01:25:00,
2013-09-08 21:30:00,71.4,70.2,30.02,WSW,256,0.0,0.0,96,0.00,,,0.13,Wunderground v.1.15,2013-09-09 01:30:00,
2013-09-08 21:35:00,71.3,70.1,30.02,WSW,256,0.0,0.0,96,0.00,,,0.13,Wunderground v.1.15,2013-09-09 01:35:00,
2013-09-08 21:40:00,71.2,70.0,30.02,WSW,256,0.0,0.0,96,0.00,,,0.13,Wunderground v.1.15,2013-09-09 01:40:00,
2013-09-08 21:45:00,71.1,69.9,30.03,WSW,256,0.0,0.0,96,0.00,,,0.13,Wunderground v.1.15,2013-09-09 01:45:00,
2013-09-08 21:55:00,70.8,69.6,30.03,WSW,256,0.0,0.0,96,0.00,,,0.13,Wunderground v.1.15,2013-09-09 01:55:00,
2013-09-08 22:00:00,70.8,69.9,30.03,WSW,256,0.0,0.0,97,0.00,,,0.13,Wunderground v.1.15,2013-09-09 02:00:00,
2013-09-08 22:05:00,70.6,69.7,30.03,WSW,256,0.0,0.0,97,0.00,,,0.13,Wunderground v.1.15,2013-09-09 02:05:00,
2013-09-08 22:10:00,70.6,69.7,30.03,WSW,255,0.0,0.0,97,0.00,,,0.13,Wunderground v.1.15,2013-09-09 02:10:00,
2013-09-08 22:15:00,70.3,69.4,30.03,WSW,256,0.0,0.0,97,0.00,,,0.13,Wunderground v.1.15,2013-09-09 02:15:00,
2013-09-08 22:20:00,70.2,69.3,30.04,WSW,256,0.0,0.0,97,0.00,,,0.13,Wunderground v.1.15,2013-09-09 02:20:00,
2013-09-08 22:25:00,70.4,69.5,30.03,WSW,256,0.0,0.0,97,0.00,,,0.13,Wunderground v.1.15,2013-09-09 02:25:00,
2013-09-08 22:30:00,70.3,69.4,30.04,WSW,256,0.0,0.0,97,0.00,,,0.13,Wunderground v.1.15,2013-09-09 02:30:00,
2013-09-08 22:35:00,70.0,69.1,30.04,WSW,256,0.0,0.0,97,0.00,,,0.13,Wunderground v.1.15,2013-09-09 02:35:00,
2013-09-08 22:40:00,69.9,69.0,30.04,WSW,256,0.0,0.0,97,0.00,,,0.13,Wunderground v.1.15,2013-09-09 02:40:00,
2013-09-08 22:45:00,70.0,69.1,30.04,WSW,256,0.0,0.0,97,0.00,,,0.13,Wunderground v.1.15,2013-09-09 02:45:00,
2013-09-08 22:50:00,69.9,69.0,30.04,WSW,256,0.0,0.0,97,0.00,,,0.13,Wunderground v.1.15,2013-09-09 02:50:00,
2013-09-08 22:55:00,69.7,68.8,30.04,WSW,256,0.0,0.0,97,0.00,,,0.13,Wunderground v.1.15,2013-09-09 02:55:00,
2013-09-08 23:00:00,69.6,68.7,30.04,WSW,256,0.0,0.0,97,0.00,,,0.13,Wunderground v.1.15,2013-09-09 03:00:00,
2013-09-08 23:05:00,69.6,68.7,30.04,WSW,256,0.0,0.0,97,0.00,,,0.13,Wunderground v.1.15,2013-09-09 03:05:00,
2013-09-08 23:10:00,69.3,68.4,30.04,WSW,256,0.0,0.0,97,0.00,,,0.13,Wunderground v.1.15,2013-09-09 03:10:00,
2013-09-08 23:15:00,69.4,68.8,30.04,WSW,256,0.0,0.0,98,0.00,,,0.13,Wunderground v.1.15,2013-09-09 03:15:00,
2013-09-08 23:20:00,69.5,68.9,30.04,WSW,256,0.0,0.0,98,0.00,,,0.13,Wunderground v.1.15,2013-09-09 03:20:00,
2013-09-08 23:30:00,69.2,68.3,30.05,WSW,256,0.0,0.0,97,0.00,,,0.13,Wunderground v.1.15,2013-09-09 03:30:00,
2013-09-08 23:35:00,69.1,68.2,30.05,WSW,255,0.0,0.0,97,0.00,,,0.13,Wunderground v.1.15,2013-09-09 03:35:00,
2013-09-08 23:40:00,69.1,68.5,30.05,WSW,255,0.0,0.0,98,0.00,,,0.13,Wunderground v.1.15,2013-09-09 03:40:00,
2013-09-08 23:45:00,69.1,68.5,30.05,WSW,256,0.0,0.0,98,0.00,,,0.13,Wunderground v.1.15,2013-09-09 03:45:00,
2013-09-08 23:50:00,69.1,68.5,30.05,WSW,256,0.0,0.0,98,0.00,,,0.13,Wunderground v.1.15,2013-09-09 03:50:00,
2013-09-08 23:55:00,69.2,68.6,30.05,North,9,0.0,0.0,98,0.00,,,0.13,Wunderground v.1.15,2013-09-09 03:55:00,